sensor_id;sensor_type;location;lat;lon;timestamp;P1;durP1;ratioP1;P2;durP2;ratioP2
64210;SDS011;72187;48.514;14.394;2023-09-30T00:00:20;5.20;;;4.00;;
64210;SDS011;72187;48.514;14.394;2023-09-30T00:01:13;6.10;;;4.40;;
64210;SDS011;72187;48.514;14.394;2023-09-30T00:01:47;6.70;;;4.20;;
64210;SDS011;72187;48.514;14.394;2023-09-30T00:02:22;5.90;;;4.40;;
64210;SDS011;72187;48.514;14.394;2023-09-30T00:02:56;7.50;;;4.40;;
64210;SDS011;72187;48.514;14.394;2023-09-30T00:03:31;8.30;;;4.50;;
64210;SDS011;72187;48.514;14.394;2023-09-30T00:04:05;7.80;;;4.60;;
64210;SDS011;72187;48.514;14.394;2023-09-30T00:04:40;9.90;;;4.50;;
64210;SDS011;72187;48.514;14.394;2023-09-30T00:05:13;8.00;;;4.60;;
64210;SDS011;72187;48.514;14.394;2023-09-30T00:05:48;8.30;;;4.40;;
64210;SDS011;72187;48.514;14.394;2023-09-30T00:06:21;7.90;;;4.50;;
64210;SDS011;72187;48.514;14.394;2023-09-30T00:06:54;8.60;;;4.40;;
64210;SDS011;72187;48.514;14.394;2023-09-30T00:07:28;6.60;;;4.30;;
64210;SDS011;72187;48.514;14.394;2023-09-30T00:08:02;8.40;;;5.00;;
64210;SDS011;72187;48.514;14.394;2023-09-30T00:08:36;7.50;;;5.20;;
64210;SDS011;72187;48.514;14.394;2023-09-30T00:09:12;8.50;;;4.60;;
64210;SDS011;72187;48.514;14.394;2023-09-30T00:09:46;9.40;;;4.60;;
64210;SDS011;72187;48.514;14.394;2023-09-30T00:10:20;8.60;;;4.80;;
64210;SDS011;72187;48.514;14.394;2023-09-30T00:10:53;6.70;;;4.60;;
64210;SDS011;72187;48.514;14.394;2023-09-30T00:11:27;8.80;;;4.70;;
64210;SDS011;72187;48.514;14.394;2023-09-30T00:12:01;9.00;;;5.10;;
64210;SDS011;72187;48.514;14.394;2023-09-30T00:12:35;7.90;;;4.80;;
64210;SDS011;72187;48.514;14.394;2023-09-30T00:13:12;6.40;;;4.20;;
64210;SDS011;72187;48.514;14.394;2023-09-30T00:13:49;6.70;;;4.20;;
64210;SDS011;72187;48.514;14.394;2023-09-30T00:14:25;5.70;;;4.50;;
64210;SDS011;72187;48.514;14.394;2023-09-30T00:14:59;5.60;;;4.60;;
64210;SDS011;72187;48.514;14.394;2023-09-30T00:15:33;7.30;;;4.50;;
64210;SDS011;72187;48.514;14.394;2023-09-30T00:16:06;8.30;;;5.00;;
64210;SDS011;72187;48.514;14.394;2023-09-30T00:16:40;8.50;;;4.70;;
64210;SDS011;72187;48.514;14.394;2023-09-30T00:17:14;6.60;;;4.70;;
64210;SDS011;72187;48.514;14.394;2023-09-30T00:17:48;6.80;;;5.30;;
64210;SDS011;72187;48.514;14.394;2023-09-30T00:18:21;6.40;;;5.20;;
64210;SDS011;72187;48.514;14.394;2023-09-30T00:18:55;6.90;;;5.20;;
64210;SDS011;72187;48.514;14.394;2023-09-30T00:19:29;8.90;;;5.00;;
64210;SDS011;72187;48.514;14.394;2023-09-30T00:20:02;8.80;;;5.00;;
64210;SDS011;72187;48.514;14.394;2023-09-30T00:20:37;6.90;;;5.30;;
64210;SDS011;72187;48.514;14.394;2023-09-30T00:21:10;6.30;;;5.10;;
64210;SDS011;72187;48.514;14.394;2023-09-30T00:21:44;7.30;;;5.10;;
64210;SDS011;72187;48.514;14.394;2023-09-30T00:22:18;7.30;;;5.20;;
64210;SDS011;72187;48.514;14.394;2023-09-30T00:22:51;11.30;;;5.60;;
64210;SDS011;72187;48.514;14.394;2023-09-30T00:23:25;8.60;;;5.50;;
64210;SDS011;72187;48.514;14.394;2023-09-30T00:23:58;6.70;;;5.30;;
64210;SDS011;72187;48.514;14.394;2023-09-30T00:24:32;7.40;;;5.20;;
64210;SDS011;72187;48.514;14.394;2023-09-30T00:25:05;9.70;;;5.60;;
64210;SDS011;72187;48.514;14.394;2023-09-30T00:25:39;6.80;;;5.60;;
64210;SDS011;72187;48.514;14.394;2023-09-30T00:26:12;10.90;;;5.60;;
64210;SDS011;72187;48.514;14.394;2023-09-30T00:26:48;7.20;;;5.50;;
64210;SDS011;72187;48.514;14.394;2023-09-30T00:27:23;8.00;;;5.80;;
64210;SDS011;72187;48.514;14.394;2023-09-30T00:27:57;7.20;;;5.50;;
64210;SDS011;72187;48.514;14.394;2023-09-30T00:28:30;7.70;;;5.60;;
64210;SDS011;72187;48.514;14.394;2023-09-30T00:29:03;7.70;;;5.60;;
64210;SDS011;72187;48.514;14.394;2023-09-30T00:29:38;7.30;;;5.60;;
64210;SDS011;72187;48.514;14.394;2023-09-30T00:30:11;10.10;;;5.60;;
64210;SDS011;72187;48.514;14.394;2023-09-30T00:30:45;8.80;;;6.00;;
64210;SDS011;72187;48.514;14.394;2023-09-30T00:31:20;7.40;;;5.30;;
64210;SDS011;72187;48.514;14.394;2023-09-30T00:31:54;10.00;;;5.60;;
64210;SDS011;72187;48.514;14.394;2023-09-30T00:32:28;7.40;;;5.40;;
64210;SDS011;72187;48.514;14.394;2023-09-30T00:33:02;7.00;;;5.50;;
64210;SDS011;72187;48.514;14.394;2023-09-30T00:33:36;8.10;;;5.70;;
64210;SDS011;72187;48.514;14.394;2023-09-30T00:34:10;10.20;;;5.50;;
64210;SDS011;72187;48.514;14.394;2023-09-30T00:34:43;7.20;;;5.30;;
64210;SDS011;72187;48.514;14.394;2023-09-30T00:35:17;10.20;;;5.40;;
64210;SDS011;72187;48.514;14.394;2023-09-30T00:35:51;8.90;;;5.30;;
64210;SDS011;72187;48.514;14.394;2023-09-30T00:36:24;8.80;;;5.50;;
64210;SDS011;72187;48.514;14.394;2023-09-30T00:36:58;6.80;;;5.20;;
64210;SDS011;72187;48.514;14.394;2023-09-30T00:37:31;8.60;;;5.50;;
64210;SDS011;72187;48.514;14.394;2023-09-30T00:38:05;6.90;;;5.10;;
64210;SDS011;72187;48.514;14.394;2023-09-30T00:38:39;8.10;;;5.40;;
64210;SDS011;72187;48.514;14.394;2023-09-30T00:39:13;8.70;;;5.60;;
64210;SDS011;72187;48.514;14.394;2023-09-30T00:39:46;9.30;;;5.50;;
64210;SDS011;72187;48.514;14.394;2023-09-30T00:40:20;8.30;;;5.50;;
64210;SDS011;72187;48.514;14.394;2023-09-30T00:40:53;9.10;;;5.60;;
64210;SDS011;72187;48.514;14.394;2023-09-30T00:41:26;8.70;;;5.30;;
64210;SDS011;72187;48.514;14.394;2023-09-30T00:42:00;8.70;;;5.30;;
64210;SDS011;72187;48.514;14.394;2023-09-30T00:42:33;7.50;;;5.70;;
64210;SDS011;72187;48.514;14.394;2023-09-30T00:43:07;8.00;;;5.70;;
64210;SDS011;72187;48.514;14.394;2023-09-30T00:43:51;6.80;;;5.40;;
64210;SDS011;72187;48.514;14.394;2023-09-30T00:44:25;7.30;;;5.00;;
64210;SDS011;72187;48.514;14.394;2023-09-30T00:45:02;7.40;;;5.70;;
64210;SDS011;72187;48.514;14.394;2023-09-30T00:45:38;7.70;;;5.70;;
64210;SDS011;72187;48.514;14.394;2023-09-30T00:47:21;8.10;;;5.40;;
64210;SDS011;72187;48.514;14.394;2023-09-30T00:47:56;7.60;;;5.50;;
64210;SDS011;72187;48.514;14.394;2023-09-30T00:48:29;7.90;;;5.60;;
64210;SDS011;72187;48.514;14.394;2023-09-30T00:49:03;7.60;;;5.70;;
64210;SDS011;72187;48.514;14.394;2023-09-30T00:49:37;8.40;;;6.00;;
64210;SDS011;72187;48.514;14.394;2023-09-30T00:50:11;7.20;;;5.60;;
64210;SDS011;72187;48.514;14.394;2023-09-30T00:50:46;12.40;;;6.20;;
64210;SDS011;72187;48.514;14.394;2023-09-30T00:51:19;7.90;;;6.00;;
64210;SDS011;72187;48.514;14.394;2023-09-30T00:51:54;8.30;;;6.00;;
64210;SDS011;72187;48.514;14.394;2023-09-30T00:52:29;8.90;;;6.30;;
64210;SDS011;72187;48.514;14.394;2023-09-30T00:53:06;9.40;;;6.10;;
64210;SDS011;72187;48.514;14.394;2023-09-30T00:53:40;7.80;;;5.80;;
64210;SDS011;72187;48.514;14.394;2023-09-30T00:54:17;7.90;;;5.90;;
64210;SDS011;72187;48.514;14.394;2023-09-30T00:54:52;8.80;;;5.70;;
64210;SDS011;72187;48.514;14.394;2023-09-30T00:55:28;10.00;;;6.00;;
64210;SDS011;72187;48.514;14.394;2023-09-30T00:56:01;8.30;;;5.80;;
64210;SDS011;72187;48.514;14.394;2023-09-30T00:56:35;9.20;;;6.40;;
64210;SDS011;72187;48.514;14.394;2023-09-30T00:57:17;6.70;;;5.70;;
64210;SDS011;72187;48.514;14.394;2023-09-30T00:57:53;8.30;;;6.00;;
64210;SDS011;72187;48.514;14.394;2023-09-30T00:58:26;8.90;;;6.30;;
64210;SDS011;72187;48.514;14.394;2023-09-30T00:59:01;7.10;;;5.70;;
64210;SDS011;72187;48.514;14.394;2023-09-30T00:59:37;9.00;;;6.10;;
64210;SDS011;72187;48.514;14.394;2023-09-30T01:00:12;8.50;;;6.60;;
64210;SDS011;72187;48.514;14.394;2023-09-30T01:00:46;8.90;;;6.00;;
64210;SDS011;72187;48.514;14.394;2023-09-30T01:01:21;8.30;;;6.20;;
64210;SDS011;72187;48.514;14.394;2023-09-30T01:01:56;8.60;;;6.10;;
64210;SDS011;72187;48.514;14.394;2023-09-30T01:02:32;7.90;;;6.30;;
64210;SDS011;72187;48.514;14.394;2023-09-30T01:03:08;7.80;;;6.20;;
64210;SDS011;72187;48.514;14.394;2023-09-30T01:03:45;7.60;;;6.30;;
64210;SDS011;72187;48.514;14.394;2023-09-30T01:04:20;11.20;;;6.40;;
64210;SDS011;72187;48.514;14.394;2023-09-30T01:04:54;8.80;;;6.20;;
64210;SDS011;72187;48.514;14.394;2023-09-30T01:05:29;8.90;;;6.20;;
64210;SDS011;72187;48.514;14.394;2023-09-30T01:06:03;9.60;;;6.30;;
64210;SDS011;72187;48.514;14.394;2023-09-30T01:06:37;7.20;;;6.00;;
64210;SDS011;72187;48.514;14.394;2023-09-30T01:07:11;8.40;;;6.10;;
64210;SDS011;72187;48.514;14.394;2023-09-30T01:07:44;7.60;;;6.40;;
64210;SDS011;72187;48.514;14.394;2023-09-30T01:08:18;8.20;;;6.30;;
64210;SDS011;72187;48.514;14.394;2023-09-30T01:08:53;10.30;;;6.90;;
64210;SDS011;72187;48.514;14.394;2023-09-30T01:09:26;9.60;;;6.60;;
64210;SDS011;72187;48.514;14.394;2023-09-30T01:10:01;8.80;;;6.40;;
64210;SDS011;72187;48.514;14.394;2023-09-30T01:10:35;8.90;;;6.40;;
64210;SDS011;72187;48.514;14.394;2023-09-30T01:11:09;7.10;;;6.20;;
64210;SDS011;72187;48.514;14.394;2023-09-30T01:11:42;9.80;;;6.30;;
64210;SDS011;72187;48.514;14.394;2023-09-30T01:12:17;8.40;;;6.10;;
64210;SDS011;72187;48.514;14.394;2023-09-30T01:12:51;8.50;;;6.60;;
64210;SDS011;72187;48.514;14.394;2023-09-30T01:13:31;8.20;;;6.40;;
64210;SDS011;72187;48.514;14.394;2023-09-30T01:14:23;9.10;;;7.20;;
64210;SDS011;72187;48.514;14.394;2023-09-30T01:15:13;8.00;;;6.40;;
64210;SDS011;72187;48.514;14.394;2023-09-30T01:15:47;11.10;;;6.40;;
64210;SDS011;72187;48.514;14.394;2023-09-30T01:16:21;8.10;;;6.50;;
64210;SDS011;72187;48.514;14.394;2023-09-30T01:16:55;8.70;;;6.70;;
64210;SDS011;72187;48.514;14.394;2023-09-30T01:17:28;9.00;;;6.60;;
64210;SDS011;72187;48.514;14.394;2023-09-30T01:18:03;8.70;;;6.20;;
64210;SDS011;72187;48.514;14.394;2023-09-30T01:18:37;8.30;;;6.30;;
64210;SDS011;72187;48.514;14.394;2023-09-30T01:19:13;10.50;;;6.30;;
64210;SDS011;72187;48.514;14.394;2023-09-30T01:19:46;8.80;;;6.90;;
64210;SDS011;72187;48.514;14.394;2023-09-30T01:20:20;8.80;;;6.60;;
64210;SDS011;72187;48.514;14.394;2023-09-30T01:20:55;8.30;;;6.60;;
64210;SDS011;72187;48.514;14.394;2023-09-30T01:21:33;9.00;;;6.60;;
64210;SDS011;72187;48.514;14.394;2023-09-30T01:22:07;8.90;;;6.70;;
64210;SDS011;72187;48.514;14.394;2023-09-30T01:22:43;8.40;;;6.40;;
64210;SDS011;72187;48.514;14.394;2023-09-30T01:23:18;8.80;;;7.00;;
64210;SDS011;72187;48.514;14.394;2023-09-30T01:23:52;10.10;;;7.20;;
64210;SDS011;72187;48.514;14.394;2023-09-30T01:24:26;8.00;;;6.90;;
64210;SDS011;72187;48.514;14.394;2023-09-30T01:25:00;9.20;;;6.60;;
64210;SDS011;72187;48.514;14.394;2023-09-30T01:25:34;8.80;;;7.10;;
64210;SDS011;72187;48.514;14.394;2023-09-30T01:26:11;8.30;;;6.40;;
64210;SDS011;72187;48.514;14.394;2023-09-30T01:26:45;11.00;;;6.90;;
64210;SDS011;72187;48.514;14.394;2023-09-30T01:27:19;9.40;;;6.90;;
64210;SDS011;72187;48.514;14.394;2023-09-30T01:27:52;11.20;;;6.60;;
64210;SDS011;72187;48.514;14.394;2023-09-30T01:28:26;9.00;;;7.00;;
64210;SDS011;72187;48.514;14.394;2023-09-30T01:29:00;8.30;;;6.70;;
64210;SDS011;72187;48.514;14.394;2023-09-30T01:29:33;8.70;;;6.90;;
64210;SDS011;72187;48.514;14.394;2023-09-30T01:30:08;9.20;;;6.90;;
64210;SDS011;72187;48.514;14.394;2023-09-30T01:30:44;9.50;;;6.40;;
64210;SDS011;72187;48.514;14.394;2023-09-30T01:31:18;8.80;;;6.60;;
64210;SDS011;72187;48.514;14.394;2023-09-30T01:31:51;8.20;;;6.60;;
64210;SDS011;72187;48.514;14.394;2023-09-30T01:32:25;11.00;;;6.50;;
64210;SDS011;72187;48.514;14.394;2023-09-30T01:33:00;9.60;;;6.60;;
64210;SDS011;72187;48.514;14.394;2023-09-30T01:33:33;8.20;;;6.50;;
64210;SDS011;72187;48.514;14.394;2023-09-30T01:34:08;9.20;;;6.50;;
64210;SDS011;72187;48.514;14.394;2023-09-30T01:34:43;11.10;;;6.90;;
64210;SDS011;72187;48.514;14.394;2023-09-30T01:35:17;12.30;;;6.90;;
64210;SDS011;72187;48.514;14.394;2023-09-30T01:35:50;9.30;;;6.70;;
64210;SDS011;72187;48.514;14.394;2023-09-30T01:36:24;8.30;;;6.80;;
64210;SDS011;72187;48.514;14.394;2023-09-30T01:36:57;10.20;;;6.50;;
64210;SDS011;72187;48.514;14.394;2023-09-30T01:37:31;8.30;;;6.20;;
64210;SDS011;72187;48.514;14.394;2023-09-30T01:38:05;7.70;;;6.20;;
64210;SDS011;72187;48.514;14.394;2023-09-30T01:38:38;8.20;;;6.40;;
64210;SDS011;72187;48.514;14.394;2023-09-30T01:39:13;9.90;;;7.00;;
64210;SDS011;72187;48.514;14.394;2023-09-30T01:39:47;9.60;;;6.10;;
64210;SDS011;72187;48.514;14.394;2023-09-30T01:40:23;7.80;;;6.50;;
64210;SDS011;72187;48.514;14.394;2023-09-30T01:40:56;8.00;;;6.60;;
64210;SDS011;72187;48.514;14.394;2023-09-30T01:41:33;8.40;;;6.40;;
64210;SDS011;72187;48.514;14.394;2023-09-30T01:42:06;8.70;;;6.30;;
64210;SDS011;72187;48.514;14.394;2023-09-30T01:42:40;8.40;;;6.20;;
64210;SDS011;72187;48.514;14.394;2023-09-30T01:43:14;8.70;;;6.20;;
64210;SDS011;72187;48.514;14.394;2023-09-30T01:43:48;7.50;;;6.20;;
64210;SDS011;72187;48.514;14.394;2023-09-30T01:44:22;7.80;;;6.50;;
64210;SDS011;72187;48.514;14.394;2023-09-30T01:44:55;8.90;;;6.60;;
64210;SDS011;72187;48.514;14.394;2023-09-30T01:45:29;10.50;;;6.70;;
64210;SDS011;72187;48.514;14.394;2023-09-30T01:46:03;8.70;;;6.60;;
64210;SDS011;72187;48.514;14.394;2023-09-30T01:46:38;8.60;;;6.30;;
64210;SDS011;72187;48.514;14.394;2023-09-30T01:47:12;9.50;;;6.50;;
64210;SDS011;72187;48.514;14.394;2023-09-30T01:47:45;8.70;;;6.60;;
64210;SDS011;72187;48.514;14.394;2023-09-30T01:48:19;10.40;;;6.60;;
64210;SDS011;72187;48.514;14.394;2023-09-30T01:48:53;7.90;;;6.60;;
64210;SDS011;72187;48.514;14.394;2023-09-30T01:51:16;8.60;;;6.70;;
64210;SDS011;72187;48.514;14.394;2023-09-30T01:51:49;9.60;;;7.10;;
64210;SDS011;72187;48.514;14.394;2023-09-30T01:52:23;10.00;;;6.70;;
64210;SDS011;72187;48.514;14.394;2023-09-30T01:52:57;10.60;;;6.90;;
64210;SDS011;72187;48.514;14.394;2023-09-30T01:53:30;8.70;;;7.00;;
64210;SDS011;72187;48.514;14.394;2023-09-30T01:54:04;9.60;;;7.00;;
64210;SDS011;72187;48.514;14.394;2023-09-30T01:54:38;8.60;;;6.60;;
64210;SDS011;72187;48.514;14.394;2023-09-30T01:55:11;8.50;;;7.20;;
64210;SDS011;72187;48.514;14.394;2023-09-30T01:55:45;9.70;;;7.10;;
64210;SDS011;72187;48.514;14.394;2023-09-30T01:56:19;9.70;;;6.90;;
64210;SDS011;72187;48.514;14.394;2023-09-30T01:56:53;9.10;;;6.70;;
64210;SDS011;72187;48.514;14.394;2023-09-30T01:57:26;8.90;;;7.00;;
64210;SDS011;72187;48.514;14.394;2023-09-30T01:58:00;8.00;;;6.70;;
64210;SDS011;72187;48.514;14.394;2023-09-30T01:58:34;7.40;;;6.50;;
64210;SDS011;72187;48.514;14.394;2023-09-30T01:59:07;9.00;;;6.80;;
64210;SDS011;72187;48.514;14.394;2023-09-30T01:59:40;8.10;;;6.70;;
64210;SDS011;72187;48.514;14.394;2023-09-30T02:00:14;8.60;;;7.20;;
64210;SDS011;72187;48.514;14.394;2023-09-30T02:00:47;9.20;;;6.80;;
64210;SDS011;72187;48.514;14.394;2023-09-30T02:01:21;9.90;;;7.00;;
64210;SDS011;72187;48.514;14.394;2023-09-30T02:01:56;10.50;;;7.60;;
64210;SDS011;72187;48.514;14.394;2023-09-30T02:02:30;9.90;;;6.40;;
64210;SDS011;72187;48.514;14.394;2023-09-30T02:03:04;7.90;;;6.90;;
64210;SDS011;72187;48.514;14.394;2023-09-30T02:03:38;9.90;;;7.10;;
64210;SDS011;72187;48.514;14.394;2023-09-30T02:04:12;9.90;;;7.20;;
64210;SDS011;72187;48.514;14.394;2023-09-30T02:04:48;10.20;;;7.30;;
64210;SDS011;72187;48.514;14.394;2023-09-30T02:05:22;9.80;;;6.90;;
64210;SDS011;72187;48.514;14.394;2023-09-30T02:05:59;12.40;;;7.30;;
64210;SDS011;72187;48.514;14.394;2023-09-30T02:06:32;11.00;;;7.00;;
64210;SDS011;72187;48.514;14.394;2023-09-30T02:07:07;10.60;;;6.90;;
64210;SDS011;72187;48.514;14.394;2023-09-30T02:07:40;10.30;;;7.20;;
64210;SDS011;72187;48.514;14.394;2023-09-30T02:08:14;11.20;;;7.20;;
64210;SDS011;72187;48.514;14.394;2023-09-30T02:08:48;9.90;;;7.20;;
64210;SDS011;72187;48.514;14.394;2023-09-30T02:09:22;9.30;;;6.70;;
64210;SDS011;72187;48.514;14.394;2023-09-30T02:09:57;9.90;;;7.20;;
64210;SDS011;72187;48.514;14.394;2023-09-30T02:10:31;11.70;;;7.40;;
64210;SDS011;72187;48.514;14.394;2023-09-30T02:11:06;8.80;;;6.90;;
64210;SDS011;72187;48.514;14.394;2023-09-30T02:11:40;9.50;;;7.40;;
64210;SDS011;72187;48.514;14.394;2023-09-30T02:12:14;11.10;;;7.10;;
64210;SDS011;72187;48.514;14.394;2023-09-30T02:12:48;11.70;;;7.20;;
64210;SDS011;72187;48.514;14.394;2023-09-30T02:13:22;9.00;;;7.10;;
64210;SDS011;72187;48.514;14.394;2023-09-30T02:13:56;8.50;;;7.30;;
64210;SDS011;72187;48.514;14.394;2023-09-30T02:14:31;8.60;;;7.10;;
64210;SDS011;72187;48.514;14.394;2023-09-30T02:15:05;12.50;;;7.80;;
64210;SDS011;72187;48.514;14.394;2023-09-30T02:15:40;9.20;;;7.40;;
64210;SDS011;72187;48.514;14.394;2023-09-30T02:16:17;10.80;;;8.00;;
64210;SDS011;72187;48.514;14.394;2023-09-30T02:16:50;11.30;;;7.30;;
64210;SDS011;72187;48.514;14.394;2023-09-30T02:17:24;9.70;;;7.20;;
64210;SDS011;72187;48.514;14.394;2023-09-30T02:17:57;8.70;;;6.80;;
64210;SDS011;72187;48.514;14.394;2023-09-30T02:18:33;11.70;;;7.80;;
64210;SDS011;72187;48.514;14.394;2023-09-30T02:19:07;10.10;;;7.10;;
64210;SDS011;72187;48.514;14.394;2023-09-30T02:19:44;9.70;;;6.70;;
64210;SDS011;72187;48.514;14.394;2023-09-30T02:20:18;12.90;;;7.90;;
64210;SDS011;72187;48.514;14.394;2023-09-30T02:21:00;11.00;;;7.80;;
64210;SDS011;72187;48.514;14.394;2023-09-30T02:21:33;10.70;;;8.10;;
64210;SDS011;72187;48.514;14.394;2023-09-30T02:22:08;13.50;;;7.50;;
64210;SDS011;72187;48.514;14.394;2023-09-30T02:22:42;11.40;;;7.90;;
64210;SDS011;72187;48.514;14.394;2023-09-30T02:23:17;11.80;;;7.80;;
64210;SDS011;72187;48.514;14.394;2023-09-30T02:23:51;12.10;;;6.70;;
64210;SDS011;72187;48.514;14.394;2023-09-30T02:24:28;11.50;;;7.40;;
64210;SDS011;72187;48.514;14.394;2023-09-30T02:25:02;10.30;;;7.20;;
64210;SDS011;72187;48.514;14.394;2023-09-30T02:25:40;9.80;;;7.60;;
64210;SDS011;72187;48.514;14.394;2023-09-30T02:26:15;9.90;;;7.60;;
64210;SDS011;72187;48.514;14.394;2023-09-30T02:26:48;10.60;;;7.20;;
64210;SDS011;72187;48.514;14.394;2023-09-30T02:27:22;9.60;;;7.80;;
64210;SDS011;72187;48.514;14.394;2023-09-30T02:27:55;11.20;;;7.70;;
64210;SDS011;72187;48.514;14.394;2023-09-30T02:28:30;11.10;;;7.80;;
64210;SDS011;72187;48.514;14.394;2023-09-30T02:29:05;11.20;;;8.00;;
64210;SDS011;72187;48.514;14.394;2023-09-30T02:29:40;10.20;;;7.60;;
64210;SDS011;72187;48.514;14.394;2023-09-30T02:30:14;9.60;;;7.60;;
64210;SDS011;72187;48.514;14.394;2023-09-30T02:30:49;12.90;;;7.80;;
64210;SDS011;72187;48.514;14.394;2023-09-30T02:31:23;10.40;;;7.40;;
64210;SDS011;72187;48.514;14.394;2023-09-30T02:31:57;9.70;;;7.40;;
64210;SDS011;72187;48.514;14.394;2023-09-30T02:32:33;10.00;;;7.90;;
64210;SDS011;72187;48.514;14.394;2023-09-30T02:33:06;10.50;;;8.30;;
64210;SDS011;72187;48.514;14.394;2023-09-30T02:33:40;12.20;;;8.40;;
64210;SDS011;72187;48.514;14.394;2023-09-30T02:34:14;10.10;;;8.00;;
64210;SDS011;72187;48.514;14.394;2023-09-30T02:34:48;11.70;;;8.20;;
64210;SDS011;72187;48.514;14.394;2023-09-30T02:35:21;9.70;;;8.10;;
64210;SDS011;72187;48.514;14.394;2023-09-30T02:35:55;11.00;;;8.40;;
64210;SDS011;72187;48.514;14.394;2023-09-30T02:36:29;11.10;;;7.70;;
64210;SDS011;72187;48.514;14.394;2023-09-30T02:37:02;12.20;;;8.80;;
64210;SDS011;72187;48.514;14.394;2023-09-30T02:37:36;11.50;;;8.40;;
64210;SDS011;72187;48.514;14.394;2023-09-30T02:38:10;13.20;;;9.00;;
64210;SDS011;72187;48.514;14.394;2023-09-30T02:38:44;11.60;;;8.30;;
64210;SDS011;72187;48.514;14.394;2023-09-30T02:39:19;12.80;;;9.00;;
64210;SDS011;72187;48.514;14.394;2023-09-30T02:39:53;12.10;;;9.40;;
64210;SDS011;72187;48.514;14.394;2023-09-30T02:40:26;12.50;;;9.50;;
64210;SDS011;72187;48.514;14.394;2023-09-30T02:41:01;12.80;;;9.00;;
64210;SDS011;72187;48.514;14.394;2023-09-30T02:41:35;13.30;;;9.10;;
64210;SDS011;72187;48.514;14.394;2023-09-30T02:42:10;13.10;;;9.30;;
64210;SDS011;72187;48.514;14.394;2023-09-30T02:42:44;12.40;;;8.70;;
64210;SDS011;72187;48.514;14.394;2023-09-30T02:43:17;11.80;;;8.50;;
64210;SDS011;72187;48.514;14.394;2023-09-30T02:43:51;11.60;;;8.60;;
64210;SDS011;72187;48.514;14.394;2023-09-30T02:44:24;12.90;;;9.40;;
64210;SDS011;72187;48.514;14.394;2023-09-30T02:45:00;11.40;;;9.10;;
64210;SDS011;72187;48.514;14.394;2023-09-30T02:45:37;10.10;;;9.00;;
64210;SDS011;72187;48.514;14.394;2023-09-30T02:46:11;10.90;;;9.00;;
64210;SDS011;72187;48.514;14.394;2023-09-30T02:46:45;14.20;;;9.00;;
64210;SDS011;72187;48.514;14.394;2023-09-30T02:47:19;11.10;;;8.90;;
64210;SDS011;72187;48.514;14.394;2023-09-30T02:47:53;11.80;;;9.20;;
64210;SDS011;72187;48.514;14.394;2023-09-30T02:48:26;11.10;;;8.70;;
64210;SDS011;72187;48.514;14.394;2023-09-30T02:49:01;10.40;;;8.40;;
64210;SDS011;72187;48.514;14.394;2023-09-30T02:49:36;13.30;;;8.70;;
64210;SDS011;72187;48.514;14.394;2023-09-30T02:50:10;11.40;;;8.90;;
64210;SDS011;72187;48.514;14.394;2023-09-30T02:50:49;10.80;;;8.10;;
64210;SDS011;72187;48.514;14.394;2023-09-30T02:51:22;11.30;;;8.70;;
64210;SDS011;72187;48.514;14.394;2023-09-30T02:51:56;10.10;;;8.90;;
64210;SDS011;72187;48.514;14.394;2023-09-30T02:52:29;11.60;;;8.90;;
64210;SDS011;72187;48.514;14.394;2023-09-30T02:53:04;11.50;;;9.20;;
64210;SDS011;72187;48.514;14.394;2023-09-30T02:53:38;10.50;;;8.60;;
64210;SDS011;72187;48.514;14.394;2023-09-30T02:54:11;10.20;;;7.70;;
64210;SDS011;72187;48.514;14.394;2023-09-30T02:54:48;10.90;;;8.60;;
64210;SDS011;72187;48.514;14.394;2023-09-30T02:55:22;13.70;;;9.70;;
64210;SDS011;72187;48.514;14.394;2023-09-30T02:55:55;11.50;;;8.60;;
64210;SDS011;72187;48.514;14.394;2023-09-30T02:56:33;11.80;;;8.70;;
64210;SDS011;72187;48.514;14.394;2023-09-30T02:57:07;12.10;;;9.10;;
64210;SDS011;72187;48.514;14.394;2023-09-30T02:57:43;10.70;;;7.70;;
64210;SDS011;72187;48.514;14.394;2023-09-30T02:58:17;10.00;;;8.60;;
64210;SDS011;72187;48.514;14.394;2023-09-30T02:58:52;12.60;;;9.00;;
64210;SDS011;72187;48.514;14.394;2023-09-30T02:59:26;14.30;;;8.90;;
64210;SDS011;72187;48.514;14.394;2023-09-30T03:00:01;14.10;;;9.30;;
64210;SDS011;72187;48.514;14.394;2023-09-30T03:00:48;13.80;;;9.10;;
64210;SDS011;72187;48.514;14.394;2023-09-30T03:01:22;13.10;;;8.70;;
64210;SDS011;72187;48.514;14.394;2023-09-30T03:01:57;13.70;;;9.60;;
64210;SDS011;72187;48.514;14.394;2023-09-30T03:02:30;15.10;;;10.10;;
64210;SDS011;72187;48.514;14.394;2023-09-30T03:03:04;13.60;;;9.70;;
64210;SDS011;72187;48.514;14.394;2023-09-30T03:03:37;14.40;;;9.50;;
64210;SDS011;72187;48.514;14.394;2023-09-30T03:04:13;17.10;;;10.00;;
64210;SDS011;72187;48.514;14.394;2023-09-30T03:04:46;15.10;;;10.30;;
64210;SDS011;72187;48.514;14.394;2023-09-30T03:05:21;14.20;;;9.70;;
64210;SDS011;72187;48.514;14.394;2023-09-30T03:05:56;14.70;;;9.10;;
64210;SDS011;72187;48.514;14.394;2023-09-30T03:06:30;13.90;;;10.20;;
64210;SDS011;72187;48.514;14.394;2023-09-30T03:07:04;14.10;;;9.20;;
64210;SDS011;72187;48.514;14.394;2023-09-30T03:07:38;13.80;;;10.00;;
64210;SDS011;72187;48.514;14.394;2023-09-30T03:08:11;14.80;;;10.20;;
64210;SDS011;72187;48.514;14.394;2023-09-30T03:08:45;16.20;;;10.40;;
64210;SDS011;72187;48.514;14.394;2023-09-30T03:09:19;15.70;;;10.20;;
64210;SDS011;72187;48.514;14.394;2023-09-30T03:09:53;14.10;;;9.60;;
64210;SDS011;72187;48.514;14.394;2023-09-30T03:10:27;14.10;;;10.00;;
64210;SDS011;72187;48.514;14.394;2023-09-30T03:11:00;12.70;;;9.50;;
64210;SDS011;72187;48.514;14.394;2023-09-30T03:11:35;12.60;;;9.40;;
64210;SDS011;72187;48.514;14.394;2023-09-30T03:12:08;13.80;;;8.70;;
64210;SDS011;72187;48.514;14.394;2023-09-30T03:12:42;15.40;;;10.10;;
64210;SDS011;72187;48.514;14.394;2023-09-30T03:13:15;14.10;;;9.50;;
64210;SDS011;72187;48.514;14.394;2023-09-30T03:13:51;14.80;;;9.70;;
64210;SDS011;72187;48.514;14.394;2023-09-30T03:14:25;14.70;;;10.20;;
64210;SDS011;72187;48.514;14.394;2023-09-30T03:14:58;13.60;;;8.80;;
64210;SDS011;72187;48.514;14.394;2023-09-30T03:15:33;15.80;;;10.20;;
64210;SDS011;72187;48.514;14.394;2023-09-30T03:16:06;15.30;;;9.10;;
64210;SDS011;72187;48.514;14.394;2023-09-30T03:16:39;18.80;;;10.40;;
64210;SDS011;72187;48.514;14.394;2023-09-30T03:17:14;16.10;;;10.00;;
64210;SDS011;72187;48.514;14.394;2023-09-30T03:17:48;16.70;;;9.70;;
64210;SDS011;72187;48.514;14.394;2023-09-30T03:18:25;17.90;;;10.70;;
64210;SDS011;72187;48.514;14.394;2023-09-30T03:18:59;18.40;;;10.30;;
64210;SDS011;72187;48.514;14.394;2023-09-30T03:19:33;18.30;;;10.80;;
64210;SDS011;72187;48.514;14.394;2023-09-30T03:20:06;16.40;;;9.40;;
64210;SDS011;72187;48.514;14.394;2023-09-30T03:20:45;17.40;;;10.30;;
64210;SDS011;72187;48.514;14.394;2023-09-30T03:21:18;17.20;;;9.60;;
64210;SDS011;72187;48.514;14.394;2023-09-30T03:21:53;15.80;;;9.90;;
64210;SDS011;72187;48.514;14.394;2023-09-30T03:22:26;19.60;;;10.60;;
64210;SDS011;72187;48.514;14.394;2023-09-30T03:23:00;18.40;;;10.50;;
64210;SDS011;72187;48.514;14.394;2023-09-30T03:23:35;21.00;;;10.90;;
64210;SDS011;72187;48.514;14.394;2023-09-30T03:24:08;16.80;;;10.90;;
64210;SDS011;72187;48.514;14.394;2023-09-30T03:24:42;14.50;;;8.90;;
64210;SDS011;72187;48.514;14.394;2023-09-30T03:25:16;19.60;;;10.40;;
64210;SDS011;72187;48.514;14.394;2023-09-30T03:25:51;17.80;;;11.20;;
64210;SDS011;72187;48.514;14.394;2023-09-30T03:26:24;18.70;;;10.20;;